sensor_id;sensor_type;location;lat;lon;timestamp;P1;durP1;ratioP1;P2;durP2;ratioP2
72235;SDS011;60146;52.498;13.462;2023-07-24T00:01:49;5.57;;;2.40;;
72235;SDS011;60146;52.498;13.462;2023-07-24T00:04:14;4.13;;;2.30;;
72235;SDS011;60146;52.498;13.462;2023-07-24T00:06:40;3.75;;;2.05;;
72235;SDS011;60146;52.498;13.462;2023-07-24T00:09:05;5.00;;;2.17;;
72235;SDS011;60146;52.498;13.462;2023-07-24T00:11:31;4.43;;;1.90;;
72235;SDS011;60146;52.498;13.462;2023-07-24T00:13:56;6.53;;;2.55;;
72235;SDS011;60146;52.498;13.462;2023-07-24T00:16:22;3.50;;;1.90;;
72235;SDS011;60146;52.498;13.462;2023-07-24T00:18:47;3.65;;;1.70;;
72235;SDS011;60146;52.498;13.462;2023-07-24T00:21:12;3.25;;;1.88;;
72235;SDS011;60146;52.498;13.462;2023-07-24T00:23:38;3.50;;;2.08;;
72235;SDS011;60146;52.498;13.462;2023-07-24T00:26:04;2.75;;;1.83;;
72235;SDS011;60146;52.498;13.462;2023-07-24T00:28:29;3.95;;;2.17;;
72235;SDS011;60146;52.498;13.462;2023-07-24T00:30:55;3.17;;;1.90;;
72235;SDS011;60146;52.498;13.462;2023-07-24T00:33:21;4.30;;;2.10;;
72235;SDS011;60146;52.498;13.462;2023-07-24T00:35:47;4.03;;;1.90;;
72235;SDS011;60146;52.498;13.462;2023-07-24T00:38:12;3.65;;;1.83;;
72235;SDS011;60146;52.498;13.462;2023-07-24T00:40:38;3.15;;;1.92;;
72235;SDS011;60146;52.498;13.462;2023-07-24T00:43:03;3.67;;;1.80;;
72235;SDS011;60146;52.498;13.462;2023-07-24T00:45:29;3.35;;;2.00;;
72235;SDS011;60146;52.498;13.462;2023-07-24T00:47:55;4.18;;;2.08;;
72235;SDS011;60146;52.498;13.462;2023-07-24T00:50:20;4.40;;;2.00;;
72235;SDS011;60146;52.498;13.462;2023-07-24T00:52:46;3.95;;;1.90;;
72235;SDS011;60146;52.498;13.462;2023-07-24T00:55:13;4.22;;;1.80;;
72235;SDS011;60146;52.498;13.462;2023-07-24T00:57:39;3.35;;;2.20;;
72235;SDS011;60146;52.498;13.462;2023-07-24T01:00:05;3.38;;;2.08;;
72235;SDS011;60146;52.498;13.462;2023-07-24T01:02:32;5.60;;;2.22;;
72235;SDS011;60146;52.498;13.462;2023-07-24T01:04:57;6.13;;;2.15;;
72235;SDS011;60146;52.498;13.462;2023-07-24T01:07:24;4.82;;;1.95;;
72235;SDS011;60146;52.498;13.462;2023-07-24T01:09:49;4.47;;;2.25;;
72235;SDS011;60146;52.498;13.462;2023-07-24T01:12:34;4.47;;;2.20;;
72235;SDS011;60146;52.498;13.462;2023-07-24T01:15:03;3.47;;;1.92;;
72235;SDS011;60146;52.498;13.462;2023-07-24T01:17:31;3.17;;;2.05;;
72235;SDS011;60146;52.498;13.462;2023-07-24T01:19:59;3.03;;;2.00;;
72235;SDS011;60146;52.498;13.462;2023-07-24T01:27:56;4.10;;;1.95;;
72235;SDS011;60146;52.498;13.462;2023-07-24T01:30:22;3.35;;;1.75;;
72235;SDS011;60146;52.498;13.462;2023-07-24T01:32:47;3.83;;;1.98;;
72235;SDS011;60146;52.498;13.462;2023-07-24T01:35:13;4.30;;;2.00;;
72235;SDS011;60146;52.498;13.462;2023-07-24T01:37:39;3.90;;;2.15;;
72235;SDS011;60146;52.498;13.462;2023-07-24T01:40:07;3.30;;;1.90;;
72235;SDS011;60146;52.498;13.462;2023-07-24T01:42:34;4.53;;;2.20;;
72235;SDS011;60146;52.498;13.462;2023-07-24T01:45:01;12.75;;;2.08;;
72235;SDS011;60146;52.498;13.462;2023-07-24T01:47:28;5.78;;;2.08;;
72235;SDS011;60146;52.498;13.462;2023-07-24T01:49:54;3.45;;;1.80;;
72235;SDS011;60146;52.498;13.462;2023-07-24T01:52:20;3.45;;;1.70;;
72235;SDS011;60146;52.498;13.462;2023-07-24T01:54:45;2.78;;;1.63;;
72235;SDS011;60146;52.498;13.462;2023-07-24T01:57:11;6.05;;;1.90;;
72235;SDS011;60146;52.498;13.462;2023-07-24T01:59:36;3.50;;;2.00;;
72235;SDS011;60146;52.498;13.462;2023-07-24T02:02:02;3.88;;;2.20;;
72235;SDS011;60146;52.498;13.462;2023-07-24T02:04:27;3.05;;;1.90;;
72235;SDS011;60146;52.498;13.462;2023-07-24T02:06:53;4.88;;;2.15;;
72235;SDS011;60146;52.498;13.462;2023-07-24T02:09:18;3.90;;;2.00;;
72235;SDS011;60146;52.498;13.462;2023-07-24T02:11:44;4.20;;;2.20;;
72235;SDS011;60146;52.498;13.462;2023-07-24T02:14:11;4.00;;;2.10;;
72235;SDS011;60146;52.498;13.462;2023-07-24T02:16:37;3.83;;;2.00;;
72235;SDS011;60146;52.498;13.462;2023-07-24T02:19:02;7.35;;;2.20;;
72235;SDS011;60146;52.498;13.462;2023-07-24T02:21:28;3.53;;;2.40;;
72235;SDS011;60146;52.498;13.462;2023-07-24T02:23:53;6.78;;;2.30;;
72235;SDS011;60146;52.498;13.462;2023-07-24T02:26:18;3.65;;;1.90;;
72235;SDS011;60146;52.498;13.462;2023-07-24T02:28:44;4.07;;;2.10;;
72235;SDS011;60146;52.498;13.462;2023-07-24T02:31:09;3.78;;;1.92;;
72235;SDS011;60146;52.498;13.462;2023-07-24T02:33:34;4.55;;;2.30;;
72235;SDS011;60146;52.498;13.462;2023-07-24T02:36:00;5.07;;;1.90;;
72235;SDS011;60146;52.498;13.462;2023-07-24T02:38:26;4.88;;;2.13;;
72235;SDS011;60146;52.498;13.462;2023-07-24T02:40:51;2.97;;;1.85;;
72235;SDS011;60146;52.498;13.462;2023-07-24T02:43:16;3.65;;;2.05;;
72235;SDS011;60146;52.498;13.462;2023-07-24T02:45:42;2.88;;;1.80;;
72235;SDS011;60146;52.498;13.462;2023-07-24T02:48:07;6.60;;;2.00;;
72235;SDS011;60146;52.498;13.462;2023-07-24T02:50:33;4.68;;;2.00;;
72235;SDS011;60146;52.498;13.462;2023-07-24T02:52:59;3.15;;;2.00;;
72235;SDS011;60146;52.498;13.462;2023-07-24T02:55:24;4.07;;;1.98;;
72235;SDS011;60146;52.498;13.462;2023-07-24T02:57:50;3.72;;;1.98;;
72235;SDS011;60146;52.498;13.462;2023-07-24T03:00:16;5.32;;;1.92;;
72235;SDS011;60146;52.498;13.462;2023-07-24T03:02:41;2.65;;;1.70;;
72235;SDS011;60146;52.498;13.462;2023-07-24T03:05:07;4.35;;;1.60;;
72235;SDS011;60146;52.498;13.462;2023-07-24T03:07:33;2.83;;;1.70;;
72235;SDS011;60146;52.498;13.462;2023-07-24T03:09:58;4.00;;;1.63;;
72235;SDS011;60146;52.498;13.462;2023-07-24T03:12:24;4.63;;;1.58;;
72235;SDS011;60146;52.498;13.462;2023-07-24T03:14:49;6.35;;;1.83;;
72235;SDS011;60146;52.498;13.462;2023-07-24T03:17:15;1.73;;;1.25;;
72235;SDS011;60146;52.498;13.462;2023-07-24T03:19:40;2.70;;;1.60;;
72235;SDS011;60146;52.498;13.462;2023-07-24T03:22:06;2.10;;;1.35;;
72235;SDS011;60146;52.498;13.462;2023-07-24T03:24:31;2.67;;;1.35;;
72235;SDS011;60146;52.498;13.462;2023-07-24T03:26:56;2.42;;;1.52;;
72235;SDS011;60146;52.498;13.462;2023-07-24T03:29:22;5.72;;;1.55;;
72235;SDS011;60146;52.498;13.462;2023-07-24T03:31:47;3.40;;;1.67;;
72235;SDS011;60146;52.498;13.462;2023-07-24T03:34:12;3.13;;;1.40;;
72235;SDS011;60146;52.498;13.462;2023-07-24T03:36:38;4.05;;;1.70;;
72235;SDS011;60146;52.498;13.462;2023-07-24T03:39:06;3.15;;;1.70;;
72235;SDS011;60146;52.498;13.462;2023-07-24T03:41:32;2.85;;;1.70;;
72235;SDS011;60146;52.498;13.462;2023-07-24T03:43:57;3.13;;;1.52;;
72235;SDS011;60146;52.498;13.462;2023-07-24T03:46:22;2.30;;;1.55;;
72235;SDS011;60146;52.498;13.462;2023-07-24T03:48:48;2.25;;;1.40;;
72235;SDS011;60146;52.498;13.462;2023-07-24T03:51:15;6.28;;;1.38;;
72235;SDS011;60146;52.498;13.462;2023-07-24T03:53:41;3.40;;;1.50;;
72235;SDS011;60146;52.498;13.462;2023-07-24T03:56:06;3.28;;;1.65;;
72235;SDS011;60146;52.498;13.462;2023-07-24T03:58:31;2.97;;;1.65;;
72235;SDS011;60146;52.498;13.462;2023-07-24T04:00:57;3.10;;;1.40;;
72235;SDS011;60146;52.498;13.462;2023-07-24T04:03:22;2.80;;;1.60;;
72235;SDS011;60146;52.498;13.462;2023-07-24T04:05:47;4.65;;;1.52;;
72235;SDS011;60146;52.498;13.462;2023-07-24T04:08:13;2.25;;;1.20;;
72235;SDS011;60146;52.498;13.462;2023-07-24T04:10:38;2.50;;;1.30;;
72235;SDS011;60146;52.498;13.462;2023-07-24T04:13:04;3.50;;;1.85;;
72235;SDS011;60146;52.498;13.462;2023-07-24T04:15:29;1.90;;;1.30;;
72235;SDS011;60146;52.498;13.462;2023-07-24T04:17:54;1.92;;;1.20;;
72235;SDS011;60146;52.498;13.462;2023-07-24T04:20:20;2.22;;;1.35;;
72235;SDS011;60146;52.498;13.462;2023-07-24T04:22:45;3.28;;;1.30;;
72235;SDS011;60146;52.498;13.462;2023-07-24T04:25:10;2.10;;;1.38;;
72235;SDS011;60146;52.498;13.462;2023-07-24T04:27:36;3.60;;;1.30;;
72235;SDS011;60146;52.498;13.462;2023-07-24T04:30:01;2.33;;;1.30;;
72235;SDS011;60146;52.498;13.462;2023-07-24T04:32:26;1.80;;;1.35;;
72235;SDS011;60146;52.498;13.462;2023-07-24T04:34:54;2.33;;;1.30;;
72235;SDS011;60146;52.498;13.462;2023-07-24T04:37:20;2.60;;;1.20;;
72235;SDS011;60146;52.498;13.462;2023-07-24T04:39:45;1.50;;;1.30;;
72235;SDS011;60146;52.498;13.462;2023-07-24T04:42:11;3.08;;;1.10;;
72235;SDS011;60146;52.498;13.462;2023-07-24T04:44:36;1.67;;;1.38;;
72235;SDS011;60146;52.498;13.462;2023-07-24T04:47:01;1.75;;;1.10;;
72235;SDS011;60146;52.498;13.462;2023-07-24T04:49:30;1.83;;;1.23;;
72235;SDS011;60146;52.498;13.462;2023-07-24T04:51:57;1.27;;;1.00;;
72235;SDS011;60146;52.498;13.462;2023-07-24T04:54:23;2.40;;;1.20;;
72235;SDS011;60146;52.498;13.462;2023-07-24T04:56:48;2.00;;;1.10;;
72235;SDS011;60146;52.498;13.462;2023-07-24T04:59:14;1.95;;;1.20;;
72235;SDS011;60146;52.498;13.462;2023-07-24T05:01:39;2.53;;;1.30;;
72235;SDS011;60146;52.498;13.462;2023-07-24T05:04:04;2.47;;;1.10;;
72235;SDS011;60146;52.498;13.462;2023-07-24T05:06:30;1.70;;;1.10;;
72235;SDS011;60146;52.498;13.462;2023-07-24T05:08:55;2.50;;;1.08;;
72235;SDS011;60146;52.498;13.462;2023-07-24T05:11:20;2.53;;;1.25;;
72235;SDS011;60146;52.498;13.462;2023-07-24T05:13:46;1.80;;;1.15;;
72235;SDS011;60146;52.498;13.462;2023-07-24T05:16:11;1.60;;;1.00;;
72235;SDS011;60146;52.498;13.462;2023-07-24T05:18:37;1.30;;;1.00;;
72235;SDS011;60146;52.498;13.462;2023-07-24T05:21:02;1.20;;;0.90;;
72235;SDS011;60146;52.498;13.462;2023-07-24T05:23:27;2.67;;;1.10;;
72235;SDS011;60146;52.498;13.462;2023-07-24T05:25:57;2.60;;;1.10;;
72235;SDS011;60146;52.498;13.462;2023-07-24T05:28:23;1.67;;;1.00;;
72235;SDS011;60146;52.498;13.462;2023-07-24T05:30:51;3.38;;;1.05;;
72235;SDS011;60146;52.498;13.462;2023-07-24T05:33:16;1.92;;;1.00;;
72235;SDS011;60146;52.498;13.462;2023-07-24T05:35:41;1.27;;;1.00;;
72235;SDS011;60146;52.498;13.462;2023-07-24T05:38:08;2.15;;;1.10;;
72235;SDS011;60146;52.498;13.462;2023-07-24T05:40:33;2.33;;;1.20;;
72235;SDS011;60146;52.498;13.462;2023-07-24T05:42:58;1.35;;;1.05;;
72235;SDS011;60146;52.498;13.462;2023-07-24T05:45:24;1.77;;;1.02;;
72235;SDS011;60146;52.498;13.462;2023-07-24T05:47:49;2.17;;;1.10;;
72235;SDS011;60146;52.498;13.462;2023-07-24T05:50:14;3.40;;;0.90;;
72235;SDS011;60146;52.498;13.462;2023-07-24T05:52:40;1.98;;;1.25;;
72235;SDS011;60146;52.498;13.462;2023-07-24T05:55:05;1.27;;;1.00;;
72235;SDS011;60146;52.498;13.462;2023-07-24T05:57:31;1.50;;;1.20;;
72235;SDS011;60146;52.498;13.462;2023-07-24T05:59:57;1.35;;;0.82;;
72235;SDS011;60146;52.498;13.462;2023-07-24T06:02:22;1.83;;;1.13;;
72235;SDS011;60146;52.498;13.462;2023-07-24T06:04:47;2.03;;;1.10;;
72235;SDS011;60146;52.498;13.462;2023-07-24T06:07:13;1.67;;;1.02;;
72235;SDS011;60146;52.498;13.462;2023-07-24T06:09:38;3.13;;;1.20;;
72235;SDS011;60146;52.498;13.462;2023-07-24T06:12:04;1.50;;;1.00;;
72235;SDS011;60146;52.498;13.462;2023-07-24T06:14:29;4.00;;;1.13;;
72235;SDS011;60146;52.498;13.462;2023-07-24T06:16:55;1.17;;;1.08;;
72235;SDS011;60146;52.498;13.462;2023-07-24T06:19:20;1.50;;;1.10;;
72235;SDS011;60146;52.498;13.462;2023-07-24T06:21:46;2.00;;;1.20;;
72235;SDS011;60146;52.498;13.462;2023-07-24T06:24:12;1.55;;;1.10;;
72235;SDS011;60146;52.498;13.462;2023-07-24T06:26:38;2.22;;;1.30;;
72235;SDS011;60146;52.498;13.462;2023-07-24T06:29:04;2.15;;;1.30;;
72235;SDS011;60146;52.498;13.462;2023-07-24T06:31:29;2.63;;;1.35;;
72235;SDS011;60146;52.498;13.462;2023-07-24T06:33:54;2.47;;;1.30;;
72235;SDS011;60146;52.498;13.462;2023-07-24T06:36:20;3.30;;;1.35;;
72235;SDS011;60146;52.498;13.462;2023-07-24T06:38:45;1.60;;;1.33;;
72235;SDS011;60146;52.498;13.462;2023-07-24T06:41:12;2.03;;;1.40;;
72235;SDS011;60146;52.498;13.462;2023-07-24T06:43:38;1.50;;;1.40;;
72235;SDS011;60146;52.498;13.462;2023-07-24T06:46:04;2.25;;;1.50;;
72235;SDS011;60146;52.498;13.462;2023-07-24T06:48:29;1.88;;;1.30;;
72235;SDS011;60146;52.498;13.462;2023-07-24T06:50:54;2.90;;;1.65;;
72235;SDS011;60146;52.498;13.462;2023-07-24T06:53:20;2.40;;;1.73;;
72235;SDS011;60146;52.498;13.462;2023-07-24T06:55:45;1.77;;;1.45;;
72235;SDS011;60146;52.498;13.462;2023-07-24T06:58:10;2.83;;;1.52;;
72235;SDS011;60146;52.498;13.462;2023-07-24T07:00:36;3.90;;;1.58;;
72235;SDS011;60146;52.498;13.462;2023-07-24T07:03:01;2.50;;;1.63;;
72235;SDS011;60146;52.498;13.462;2023-07-24T07:05:27;2.33;;;1.63;;
72235;SDS011;60146;52.498;13.462;2023-07-24T07:07:52;2.35;;;1.40;;
72235;SDS011;60146;52.498;13.462;2023-07-24T07:10:17;1.90;;;1.25;;
72235;SDS011;60146;52.498;13.462;2023-07-24T07:12:43;4.68;;;1.52;;
72235;SDS011;60146;52.498;13.462;2023-07-24T07:15:08;2.55;;;1.73;;
72235;SDS011;60146;52.498;13.462;2023-07-24T07:17:34;2.05;;;1.40;;
72235;SDS011;60146;52.498;13.462;2023-07-24T07:19:59;2.35;;;1.35;;
72235;SDS011;60146;52.498;13.462;2023-07-24T07:22:24;1.73;;;1.40;;
72235;SDS011;60146;52.498;13.462;2023-07-24T07:24:50;2.13;;;1.67;;
72235;SDS011;60146;52.498;13.462;2023-07-24T07:27:15;2.70;;;1.65;;
72235;SDS011;60146;52.498;13.462;2023-07-24T07:29:42;2.28;;;1.50;;
72235;SDS011;60146;52.498;13.462;2023-07-24T07:32:08;3.05;;;1.80;;
72235;SDS011;60146;52.498;13.462;2023-07-24T07:34:34;2.15;;;1.58;;
72235;SDS011;60146;52.498;13.462;2023-07-24T07:37:01;3.75;;;1.67;;
72235;SDS011;60146;52.498;13.462;2023-07-24T07:39:26;2.08;;;1.40;;
72235;SDS011;60146;52.498;13.462;2023-07-24T07:41:51;2.90;;;1.60;;
72235;SDS011;60146;52.498;13.462;2023-07-24T07:44:17;2.78;;;1.40;;
72235;SDS011;60146;52.498;13.462;2023-07-24T07:46:42;4.20;;;1.75;;
72235;SDS011;60146;52.498;13.462;2023-07-24T07:49:08;2.75;;;1.83;;
72235;SDS011;60146;52.498;13.462;2023-07-24T07:51:33;1.70;;;1.40;;
72235;SDS011;60146;52.498;13.462;2023-07-24T07:53:59;2.35;;;1.60;;
72235;SDS011;60146;52.498;13.462;2023-07-24T07:56:24;3.50;;;1.55;;
72235;SDS011;60146;52.498;13.462;2023-07-24T07:58:49;2.03;;;1.55;;
72235;SDS011;60146;52.498;13.462;2023-07-24T08:01:15;2.55;;;1.70;;
72235;SDS011;60146;52.498;13.462;2023-07-24T08:03:40;4.18;;;1.63;;
72235;SDS011;60146;52.498;13.462;2023-07-24T08:06:06;2.00;;;1.52;;
72235;SDS011;60146;52.498;13.462;2023-07-24T08:08:32;5.55;;;1.63;;
72235;SDS011;60146;52.498;13.462;2023-07-24T08:10:57;3.55;;;1.70;;
72235;SDS011;60146;52.498;13.462;2023-07-24T08:13:22;2.20;;;1.48;;
72235;SDS011;60146;52.498;13.462;2023-07-24T08:15:48;2.95;;;1.65;;
72235;SDS011;60146;52.498;13.462;2023-07-24T08:18:14;2.83;;;1.55;;
72235;SDS011;60146;52.498;13.462;2023-07-24T08:20:39;2.28;;;1.40;;
72235;SDS011;60146;52.498;13.462;2023-07-24T08:23:05;1.70;;;1.23;;
72235;SDS011;60146;52.498;13.462;2023-07-24T08:25:30;2.20;;;1.40;;
72235;SDS011;60146;52.498;13.462;2023-07-24T08:27:56;3.90;;;1.38;;
72235;SDS011;60146;52.498;13.462;2023-07-24T08:30:21;5.07;;;1.50;;
72235;SDS011;60146;52.498;13.462;2023-07-24T08:32:46;1.63;;;1.15;;
72235;SDS011;60146;52.498;13.462;2023-07-24T08:35:14;3.05;;;1.30;;
72235;SDS011;60146;52.498;13.462;2023-07-24T08:37:42;3.03;;;1.40;;
72235;SDS011;60146;52.498;13.462;2023-07-24T08:40:09;2.38;;;1.30;;
72235;SDS011;60146;52.498;13.462;2023-07-24T08:42:35;6.10;;;1.40;;
72235;SDS011;60146;52.498;13.462;2023-07-24T08:45:07;2.92;;;1.48;;
72235;SDS011;60146;52.498;13.462;2023-07-24T08:47:36;1.55;;;1.20;;
72235;SDS011;60146;52.498;13.462;2023-07-24T08:50:05;3.05;;;1.15;;
72235;SDS011;60146;52.498;13.462;2023-07-24T08:52:31;2.97;;;1.38;;
72235;SDS011;60146;52.498;13.462;2023-07-24T08:54:57;1.85;;;1.25;;
72235;SDS011;60146;52.498;13.462;2023-07-24T08:57:26;5.22;;;1.55;;
72235;SDS011;60146;52.498;13.462;2023-07-24T08:59:51;2.17;;;1.15;;
72235;SDS011;60146;52.498;13.462;2023-07-24T09:02:17;2.17;;;1.30;;
72235;SDS011;60146;52.498;13.462;2023-07-24T09:04:42;2.67;;;1.25;;
72235;SDS011;60146;52.498;13.462;2023-07-24T09:07:07;1.67;;;1.27;;
72235;SDS011;60146;52.498;13.462;2023-07-24T09:09:33;2.65;;;1.20;;
72235;SDS011;60146;52.498;13.462;2023-07-24T09:11:58;1.83;;;1.30;;
72235;SDS011;60146;52.498;13.462;2023-07-24T09:14:28;1.60;;;1.23;;
72235;SDS011;60146;52.498;13.462;2023-07-24T09:17:03;1.27;;;1.17;;
72235;SDS011;60146;52.498;13.462;2023-07-24T09:19:29;1.63;;;1.30;;
72235;SDS011;60146;52.498;13.462;2023-07-24T09:21:55;3.08;;;1.50;;
72235;SDS011;60146;52.498;13.462;2023-07-24T09:24:20;1.60;;;1.25;;
72235;SDS011;60146;52.498;13.462;2023-07-24T09:26:49;2.00;;;1.20;;
72235;SDS011;60146;52.498;13.462;2023-07-24T09:29:18;2.85;;;1.35;;
72235;SDS011;60146;52.498;13.462;2023-07-24T09:31:44;2.17;;;1.42;;
72235;SDS011;60146;52.498;13.462;2023-07-24T09:34:17;2.28;;;1.45;;
72235;SDS011;60146;52.498;13.462;2023-07-24T09:36:43;3.42;;;1.40;;
72235;SDS011;60146;52.498;13.462;2023-07-24T09:39:09;1.98;;;1.17;;
72235;SDS011;60146;52.498;13.462;2023-07-24T09:41:36;6.10;;;1.60;;
72235;SDS011;60146;52.498;13.462;2023-07-24T09:44:05;2.85;;;1.55;;
72235;SDS011;60146;52.498;13.462;2023-07-24T09:46:31;3.58;;;1.40;;
72235;SDS011;60146;52.498;13.462;2023-07-24T09:48:57;4.60;;;1.50;;
72235;SDS011;60146;52.498;13.462;2023-07-24T09:51:23;2.75;;;1.40;;
72235;SDS011;60146;52.498;13.462;2023-07-24T09:53:55;3.97;;;1.80;;
72235;SDS011;60146;52.498;13.462;2023-07-24T09:56:25;4.03;;;1.50;;
72235;SDS011;60146;52.498;13.462;2023-07-24T09:58:52;2.00;;;1.48;;
72235;SDS011;60146;52.498;13.462;2023-07-24T10:01:21;2.75;;;1.40;;
72235;SDS011;60146;52.498;13.462;2023-07-24T10:03:47;2.28;;;1.60;;
72235;SDS011;60146;52.498;13.462;2023-07-24T10:06:15;1.98;;;1.50;;
72235;SDS011;60146;52.498;13.462;2023-07-24T10:08:41;5.03;;;1.65;;
72235;SDS011;60146;52.498;13.462;2023-07-24T10:11:07;2.35;;;1.60;;
72235;SDS011;60146;52.498;13.462;2023-07-24T10:13:34;6.20;;;1.60;;
72235;SDS011;60146;52.498;13.462;2023-07-24T10:16:01;2.50;;;1.42;;
72235;SDS011;60146;52.498;13.462;2023-07-24T10:18:30;3.63;;;1.73;;
72235;SDS011;60146;52.498;13.462;2023-07-24T10:21:02;3.53;;;1.63;;
72235;SDS011;60146;52.498;13.462;2023-07-24T10:23:29;5.07;;;1.90;;
72235;SDS011;60146;52.498;13.462;2023-07-24T10:25:55;2.95;;;1.90;;
72235;SDS011;60146;52.498;13.462;2023-07-24T10:28:29;2.28;;;1.75;;
72235;SDS011;60146;52.498;13.462;2023-07-24T10:30:56;3.03;;;2.08;;
72235;SDS011;60146;52.498;13.462;2023-07-24T10:33:24;3.33;;;2.00;;
72235;SDS011;60146;52.498;13.462;2023-07-24T10:35:53;5.22;;;1.73;;
72235;SDS011;60146;52.498;13.462;2023-07-24T10:38:19;3.10;;;2.17;;
72235;SDS011;60146;52.498;13.462;2023-07-24T10:40:48;5.10;;;2.15;;
72235;SDS011;60146;52.498;13.462;2023-07-24T10:43:27;4.18;;;2.20;;
72235;SDS011;60146;52.498;13.462;2023-07-24T10:45:52;3.72;;;2.20;;
72235;SDS011;60146;52.498;13.462;2023-07-24T10:48:20;3.53;;;2.20;;
72235;SDS011;60146;52.498;13.462;2023-07-24T10:50:50;3.55;;;2.17;;
72235;SDS011;60146;52.498;13.462;2023-07-24T10:53:17;5.68;;;2.50;;
72235;SDS011;60146;52.498;13.462;2023-07-24T10:55:45;5.82;;;2.33;;
72235;SDS011;60146;52.498;13.462;2023-07-24T10:58:12;4.65;;;2.53;;
72235;SDS011;60146;52.498;13.462;2023-07-24T11:00:39;4.30;;;2.38;;
72235;SDS011;60146;52.498;13.462;2023-07-24T11:03:07;5.43;;;2.50;;
72235;SDS011;60146;52.498;13.462;2023-07-24T11:05:34;5.93;;;2.47;;
72235;SDS011;60146;52.498;13.462;2023-07-24T11:08:00;6.10;;;2.22;;
72235;SDS011;60146;52.498;13.462;2023-07-24T11:10:25;5.22;;;2.90;;
72235;SDS011;60146;52.498;13.462;2023-07-24T11:12:51;4.63;;;2.50;;
72235;SDS011;60146;52.498;13.462;2023-07-24T11:15:22;5.30;;;2.80;;
72235;SDS011;60146;52.498;13.462;2023-07-24T11:17:49;6.13;;;2.60;;
72235;SDS011;60146;52.498;13.462;2023-07-24T11:20:15;4.72;;;2.40;;
72235;SDS011;60146;52.498;13.462;2023-07-24T11:22:41;12.30;;;2.95;;
72235;SDS011;60146;52.498;13.462;2023-07-24T11:25:08;5.15;;;2.67;;
72235;SDS011;60146;52.498;13.462;2023-07-24T11:27:41;5.30;;;2.65;;
72235;SDS011;60146;52.498;13.462;2023-07-24T11:30:09;7.40;;;2.83;;
72235;SDS011;60146;52.498;13.462;2023-07-24T11:32:35;5.28;;;2.65;;
72235;SDS011;60146;52.498;13.462;2023-07-24T11:35:03;5.80;;;2.67;;
72235;SDS011;60146;52.498;13.462;2023-07-24T11:37:29;5.28;;;2.60;;
72235;SDS011;60146;52.498;13.462;2023-07-24T11:39:56;8.15;;;2.92;;
72235;SDS011;60146;52.498;13.462;2023-07-24T11:42:29;6.13;;;2.50;;
72235;SDS011;60146;52.498;13.462;2023-07-24T11:44:55;4.43;;;2.38;;
72235;SDS011;60146;52.498;13.462;2023-07-24T11:47:20;4.57;;;2.65;;
72235;SDS011;60146;52.498;13.462;2023-07-24T11:50:01;4.78;;;2.50;;
72235;SDS011;60146;52.498;13.462;2023-07-24T11:52:46;5.03;;;2.90;;
72235;SDS011;60146;52.498;13.462;2023-07-24T11:55:20;5.03;;;2.90;;
72235;SDS011;60146;52.498;13.462;2023-07-24T11:57:59;7.05;;;2.78;;
72235;SDS011;60146;52.498;13.462;2023-07-24T12:00:28;6.30;;;3.20;;
72235;SDS011;60146;52.498;13.462;2023-07-24T12:02:58;5.32;;;2.90;;
72235;SDS011;60146;52.498;13.462;2023-07-24T12:05:24;5.72;;;2.70;;
72235;SDS011;60146;52.498;13.462;2023-07-24T12:07:53;5.00;;;2.83;;
72235;SDS011;60146;52.498;13.462;2023-07-24T12:10:26;5.25;;;2.75;;
72235;SDS011;60146;52.498;13.462;2023-07-24T12:12:53;5.07;;;2.83;;
72235;SDS011;60146;52.498;13.462;2023-07-24T12:15:19;5.82;;;2.72;;
72235;SDS011;60146;52.498;13.462;2023-07-24T12:17:44;5.22;;;2.97;;
72235;SDS011;60146;52.498;13.462;2023-07-24T12:20:09;5.38;;;3.10;;
72235;SDS011;60146;52.498;13.462;2023-07-24T12:22:36;5.25;;;3.08;;
72235;SDS011;60146;52.498;13.462;2023-07-24T12:25:02;4.57;;;2.70;;
72235;SDS011;60146;52.498;13.462;2023-07-24T12:27:28;6.40;;;3.10;;
72235;SDS011;60146;52.498;13.462;2023-07-24T12:29:54;6.20;;;2.60;;
72235;SDS011;60146;52.498;13.462;2023-07-24T12:32:20;5.85;;;2.40;;
72235;SDS011;60146;52.498;13.462;2023-07-24T12:34:49;4.80;;;2.67;;
72235;SDS011;60146;52.498;13.462;2023-07-24T12:37:16;9.23;;;2.77;;
72235;SDS011;60146;52.498;13.462;2023-07-24T12:39:45;8.33;;;2.57;;
72235;SDS011;60146;52.498;13.462;2023-07-24T12:42:11;4.57;;;2.67;;
72235;SDS011;60146;52.498;13.462;2023-07-24T12:44:37;9.18;;;2.60;;
72235;SDS011;60146;52.498;13.462;2023-07-24T12:47:03;6.05;;;2.80;;
72235;SDS011;60146;52.498;13.462;2023-07-24T12:49:29;6.75;;;3.65;;
72235;SDS011;60146;52.498;13.462;2023-07-24T12:51:54;7.47;;;2.50;;
72235;SDS011;60146;52.498;13.462;2023-07-24T12:54:20;6.18;;;2.30;;
72235;SDS011;60146;52.498;13.462;2023-07-24T12:56:46;7.05;;;2.60;;
72235;SDS011;60146;52.498;13.462;2023-07-24T12:59:12;5.60;;;2.40;;
72235;SDS011;60146;52.498;13.462;2023-07-24T13:01:37;3.88;;;2.13;;
72235;SDS011;60146;52.498;13.462;2023-07-24T13:04:03;5.13;;;2.10;;
72235;SDS011;60146;52.498;13.462;2023-07-24T13:06:28;6.05;;;2.30;;
72235;SDS011;60146;52.498;13.462;2023-07-24T13:08:54;5.32;;;2.10;;
72235;SDS011;60146;52.498;13.462;2023-07-24T13:11:19;4.32;;;2.10;;
72235;SDS011;60146;52.498;13.462;2023-07-24T13:13:44;5.38;;;2.15;;
72235;SDS011;60146;52.498;13.462;2023-07-24T13:16:10;5.35;;;2.20;;
72235;SDS011;60146;52.498;13.462;2023-07-24T13:18:35;4.63;;;2.10;;
72235;SDS011;60146;52.498;13.462;2023-07-24T13:21:00;5.07;;;3.00;;
72235;SDS011;60146;52.498;13.462;2023-07-24T13:23:26;4.68;;;2.50;;
72235;SDS011;60146;52.498;13.462;2023-07-24T13:25:52;5.90;;;2.47;;
72235;SDS011;60146;52.498;13.462;2023-07-24T13:28:17;5.38;;;2.22;;
72235;SDS011;60146;52.498;13.462;2023-07-24T13:30:43;3.50;;;2.20;;
72235;SDS011;60146;52.498;13.462;2023-07-24T13:33:08;3.78;;;2.17;;
72235;SDS011;60146;52.498;13.462;2023-07-24T13:35:34;3.75;;;2.00;;
72235;SDS011;60146;52.498;13.462;2023-07-24T13:37:59;6.25;;;2.28;;
72235;SDS011;60146;52.498;13.462;2023-07-24T13:40:24;5.57;;;2.10;;
72235;SDS011;60146;52.498;13.462;2023-07-24T13:42:50;15.38;;;5.70;;
72235;SDS011;60146;52.498;13.462;2023-07-24T13:45:15;7.90;;;3.03;;
72235;SDS011;60146;52.498;13.462;2023-07-24T13:47:41;4.97;;;2.05;;
72235;SDS011;60146;52.498;13.462;2023-07-24T13:50:06;4.05;;;2.20;;
72235;SDS011;60146;52.498;13.462;2023-07-24T13:52:32;7.18;;;2.47;;
72235;SDS011;60146;52.498;13.462;2023-07-24T13:54:58;5.20;;;2.13;;
72235;SDS011;60146;52.498;13.462;2023-07-24T13:57:23;5.60;;;2.13;;
72235;SDS011;60146;52.498;13.462;2023-07-24T13:59:48;4.05;;;2.22;;
72235;SDS011;60146;52.498;13.462;2023-07-24T14:02:14;4.30;;;2.38;;
72235;SDS011;60146;52.498;13.462;2023-07-24T14:04:39;5.90;;;2.83;;
72235;SDS011;60146;52.498;13.462;2023-07-24T14:07:07;3.72;;;2.40;;
72235;SDS011;60146;52.498;13.462;2023-07-24T14:09:34;4.82;;;3.00;;
72235;SDS011;60146;52.498;13.462;2023-07-24T14:12:00;8.25;;;3.65;;
72235;SDS011;60146;52.498;13.462;2023-07-24T14:14:28;5.28;;;2.88;;
72235;SDS011;60146;52.498;13.462;2023-07-24T14:16:54;15.60;;;6.38;;
72235;SDS011;60146;52.498;13.462;2023-07-24T14:19:19;4.07;;;2.50;;
72235;SDS011;60146;52.498;13.462;2023-07-24T14:21:44;6.75;;;2.60;;
72235;SDS011;60146;52.498;13.462;2023-07-24T14:24:10;5.63;;;2.67;;
72235;SDS011;60146;52.498;13.462;2023-07-24T14:26:35;6.78;;;2.88;;
72235;SDS011;60146;52.498;13.462;2023-07-24T14:29:03;8.30;;;3.08;;
72235;SDS011;60146;52.498;13.462;2023-07-24T14:31:29;4.93;;;2.67;;
72235;SDS011;60146;52.498;13.462;2023-07-24T14:33:54;6.10;;;2.78;;